createdAt,value
2018-08-19T00:02:23.376Z,16.00
2018-08-19T00:05:05.824Z,16.03
2018-08-19T00:07:35.781Z,16.50
2018-08-19T00:10:06.426Z,15.63
2018-08-19T00:12:44.669Z,16.50
2018-08-19T00:15:15.095Z,15.40
2018-08-19T00:17:44.591Z,16.10
2018-08-19T00:20:14.366Z,15.67
2018-08-19T00:22:44.299Z,16.17
2018-08-19T00:25:29.577Z,16.23
2018-08-19T00:27:59.650Z,15.83
2018-08-19T00:30:30.783Z,15.70
2018-08-19T00:33:00.236Z,16.67
2018-08-19T00:35:30.209Z,16.30
2018-08-19T00:38:00.050Z,15.47
2018-08-19T00:40:40.638Z,16.43
2018-08-19T00:43:10.121Z,14.70
2018-08-19T00:45:39.665Z,16.33
2018-08-19T00:48:10.680Z,16.47
2018-08-19T00:50:40.616Z,15.87
2018-08-19T00:53:11.141Z,16.37
2018-08-19T00:55:45.731Z,16.13
2018-08-19T00:58:19.124Z,16.90
2018-08-19T01:00:48.338Z,16.40
2018-08-19T01:03:17.529Z,15.07
2018-08-19T01:05:46.903Z,15.83
2018-08-19T01:08:16.308Z,15.43
2018-08-19T01:10:45.497Z,15.97
2018-08-19T01:13:14.848Z,14.93
2018-08-19T01:15:43.985Z,15.07
2018-08-19T01:18:13.441Z,16.13
2018-08-19T01:20:42.635Z,16.00
2018-08-19T01:23:12.000Z,16.23
2018-08-19T01:25:41.335Z,15.53
2018-08-19T01:28:10.469Z,16.40
2018-08-19T01:30:39.918Z,18.17
2018-08-19T01:33:09.443Z,16.83
2018-08-19T01:35:40.944Z,16.60
2018-08-19T01:38:10.135Z,16.83
2018-08-19T01:40:39.710Z,18.47
2018-08-19T01:43:08.823Z,16.73
2018-08-19T01:45:38.637Z,17.03
2018-08-19T01:48:08.094Z,17.67
2018-08-19T01:50:37.673Z,18.23
2018-08-19T01:53:06.902Z,17.83
2018-08-19T01:55:36.263Z,17.33
2018-08-19T01:58:05.932Z,18.43
2018-08-19T02:00:35.692Z,18.90
2018-08-19T02:03:05.759Z,18.90
2018-08-19T02:05:35.354Z,18.93
2018-08-19T02:08:05.309Z,17.63
2018-08-19T02:10:36.047Z,18.93
2018-08-19T02:13:05.525Z,20.03
2018-08-19T02:15:34.933Z,20.53
2018-08-19T02:18:05.996Z,20.47
2018-08-19T02:20:38.912Z,20.73
2018-08-19T02:23:09.225Z,21.80
2018-08-19T02:25:42.091Z,19.77
2018-08-19T02:28:12.158Z,20.17
2018-08-19T02:33:40.902Z,19.13
2018-08-19T02:36:09.995Z,20.83
2018-08-19T02:38:39.403Z,19.97
2018-08-19T02:41:08.845Z,19.93
2018-08-19T02:43:44.471Z,20.63
2018-08-19T02:46:13.590Z,20.37
2018-08-19T02:48:51.555Z,21.07
2018-08-19T02:51:21.306Z,20.97
2018-08-19T02:53:51.593Z,19.73
2018-08-19T02:56:23.184Z,21.03
2018-08-19T02:58:52.370Z,20.90
2018-08-19T03:01:21.783Z,20.73
2018-08-19T03:03:51.114Z,21.93
2018-08-19T03:06:20.362Z,21.63
2018-08-19T03:08:56.663Z,20.80
2018-08-19T03:11:26.177Z,20.50
2018-08-19T03:13:55.654Z,21.93
2018-08-19T03:16:25.093Z,21.73
2018-08-19T03:18:54.521Z,21.03
2018-08-19T03:21:23.906Z,23.33
2018-08-19T03:23:54.467Z,23.17
2018-08-19T03:26:23.785Z,23.70
2018-08-19T03:28:53.098Z,21.93
2018-08-19T03:31:22.485Z,21.47
2018-08-19T03:33:51.932Z,23.93
2018-08-19T03:36:21.037Z,24.43
2018-08-19T03:38:50.481Z,24.30
2018-08-19T03:41:19.943Z,24.23
2018-08-19T03:43:53.317Z,24.77
2018-08-19T03:46:22.781Z,23.10
2018-08-19T03:48:52.123Z,23.00
2018-08-19T03:51:21.244Z,24.23
2018-08-19T03:53:50.398Z,23.73
2018-08-19T03:56:24.994Z,24.00
2018-08-19T03:58:57.778Z,23.87
2018-08-19T04:01:35.685Z,22.60
2018-08-19T04:04:05.091Z,24.70
2018-08-19T04:06:34.880Z,23.40
2018-08-19T04:09:04.950Z,23.60
2018-08-19T04:11:34.493Z,24.13
2018-08-19T04:14:04.697Z,25.33
2018-08-19T04:16:34.466Z,24.13
2018-08-19T04:19:08.490Z,24.33
2018-08-19T04:21:37.566Z,23.40
2018-08-19T04:24:06.701Z,24.13
2018-08-19T04:26:35.885Z,22.93
2018-08-19T04:29:10.865Z,22.40
2018-08-19T04:31:40.205Z,21.83
2018-08-19T04:34:09.921Z,22.63
2018-08-19T04:36:39.329Z,20.40
2018-08-19T04:39:08.757Z,20.80
2018-08-19T04:41:38.164Z,20.53
2018-08-19T04:44:07.562Z,20.30
2018-08-19T04:46:36.916Z,21.50
2018-08-19T04:49:06.385Z,20.50
2018-08-19T04:51:35.520Z,20.13
2018-08-19T04:54:06.414Z,20.27
2018-08-19T04:56:36.529Z,22.20
2018-08-19T04:59:06.187Z,18.03
2018-08-19T05:01:35.603Z,18.83
2018-08-19T05:04:05.069Z,17.17
2018-08-19T05:06:34.524Z,18.63
2018-08-19T05:09:04.153Z,17.97
2018-08-19T05:11:33.310Z,16.60
2018-08-19T05:14:02.723Z,15.97
2018-08-19T05:16:31.816Z,15.07
2018-08-19T05:19:03.959Z,14.63
2018-08-19T05:21:33.499Z,15.60
2018-08-19T05:24:03.074Z,16.13
2018-08-19T05:26:32.507Z,9.60
2018-08-19T05:29:08.354Z,7.23
2018-08-19T05:31:51.924Z,6.73
2018-08-19T05:34:26.609Z,6.23
2018-08-19T05:36:56.071Z,6.30
2018-08-19T05:39:25.498Z,5.53
2018-08-19T05:42:02.930Z,4.43
2018-08-19T05:44:35.853Z,5.13
2018-08-19T05:47:07.019Z,4.70
2018-08-19T05:49:39.343Z,5.60
2018-08-19T05:52:12.780Z,6.03
2018-08-19T05:54:47.607Z,4.60
2018-08-19T05:57:17.155Z,4.20
2018-08-19T05:59:48.524Z,3.87
2018-08-19T06:02:22.019Z,2.73
2018-08-19T06:04:51.569Z,4.87
2018-08-19T06:07:21.480Z,13.80
2018-08-19T06:09:50.651Z,4.57
2018-08-19T06:12:20.214Z,3.90
2018-08-19T06:14:49.536Z,4.00
2018-08-19T06:17:18.740Z,2.70
2018-08-19T06:19:47.948Z,2.87
2018-08-19T06:22:17.172Z,2.67
2018-08-19T06:24:46.502Z,2.93
2018-08-19T06:27:15.846Z,3.00
2018-08-19T06:30:14.700Z,3.73
2018-08-19T06:32:43.939Z,2.93
2018-08-19T06:35:13.729Z,4.03
2018-08-19T06:37:42.864Z,3.40
2018-08-19T06:40:20.630Z,3.13
2018-08-19T06:42:50.725Z,3.10
2018-08-19T06:45:20.192Z,2.77
2018-08-19T06:47:49.669Z,2.33
2018-08-19T06:50:27.526Z,2.50
2018-08-19T06:52:57.825Z,3.40
2018-08-19T06:55:27.420Z,3.53
2018-08-19T06:57:58.367Z,2.80
2018-08-19T07:00:31.744Z,2.40
2018-08-19T07:03:01.959Z,3.00
2018-08-19T07:05:32.158Z,3.30
2018-08-19T07:08:08.401Z,2.20
2018-08-19T07:10:40.887Z,2.70
2018-08-19T07:13:12.364Z,2.77
2018-08-19T07:15:42.831Z,2.40
2018-08-19T07:18:14.356Z,2.97
2018-08-19T07:20:44.116Z,4.03
2018-08-19T07:23:16.953Z,2.80
2018-08-19T07:25:46.961Z,2.80
2018-08-19T07:28:18.331Z,2.67
2018-08-19T07:30:47.976Z,2.17
2018-08-19T07:33:17.517Z,3.73
2018-08-19T07:35:47.724Z,2.07
2018-08-19T07:38:17.358Z,2.57
2018-08-19T07:40:51.750Z,2.07
2018-08-19T07:43:21.391Z,1.70
2018-08-19T07:45:50.969Z,1.70
2018-08-19T07:48:20.575Z,1.70
2018-08-19T07:50:50.150Z,1.97
2018-08-19T07:53:19.855Z,2.33
2018-08-19T07:55:49.180Z,1.90
2018-08-19T07:58:34.551Z,2.13
2018-08-19T08:01:03.980Z,1.70
2018-08-19T08:03:33.470Z,1.87
2018-08-19T08:06:02.703Z,2.07
2018-08-19T08:08:32.098Z,2.23
2018-08-19T08:11:01.065Z,2.03
2018-08-19T08:13:30.130Z,2.00
2018-08-19T08:15:59.239Z,1.80
2018-08-19T08:18:29.080Z,2.00
2018-08-19T08:21:07.637Z,1.90
2018-08-19T08:23:36.722Z,2.10
2018-08-19T08:26:09.504Z,1.60
2018-08-19T08:28:38.772Z,1.63
2018-08-19T08:31:09.915Z,2.10
2018-08-19T08:33:40.665Z,1.70
2018-08-19T08:36:11.160Z,1.70
2018-08-19T08:38:42.331Z,2.00
2018-08-19T08:41:11.792Z,3.03
2018-08-19T08:43:41.919Z,2.53
2018-08-19T08:46:11.039Z,2.43
2018-08-19T08:48:40.384Z,3.00
2018-08-19T08:51:09.839Z,3.07
2018-08-19T08:53:43.484Z,2.60
2018-08-19T08:56:13.017Z,2.83
2018-08-19T08:58:42.307Z,2.80
2018-08-19T09:01:11.650Z,3.00
2018-08-19T09:03:40.788Z,2.50
2018-08-19T09:06:20.378Z,2.57
2018-08-19T09:08:50.152Z,2.87
2018-08-19T09:11:20.272Z,3.03
2018-08-19T09:13:49.413Z,4.07
2018-08-19T09:16:18.807Z,4.60
2018-08-19T09:18:48.253Z,6.17
2018-08-19T09:21:18.610Z,4.53
2018-08-19T09:23:48.048Z,3.67
2018-08-19T09:26:17.504Z,3.10
2018-08-19T09:28:46.648Z,3.70
2018-08-19T09:31:16.082Z,3.73
2018-08-19T09:33:45.529Z,3.83
2018-08-19T09:36:14.875Z,4.60
2018-08-19T09:38:44.288Z,5.27
2018-08-19T09:41:13.749Z,4.50
2018-08-19T09:43:43.152Z,3.60
2018-08-19T09:46:12.346Z,4.50
2018-08-19T09:48:41.554Z,5.23
2018-08-19T09:51:16.038Z,5.33
2018-08-19T09:53:45.341Z,3.77
2018-08-19T09:56:14.772Z,4.00
2018-08-19T09:58:48.396Z,3.83
2018-08-19T10:01:23.544Z,3.77
2018-08-19T10:03:52.667Z,4.20
2018-08-19T10:06:22.067Z,4.60
2018-08-19T10:08:51.474Z,4.40
2018-08-19T10:11:20.875Z,4.40
2018-08-19T10:13:54.498Z,4.87
2018-08-19T10:16:44.606Z,4.63
2018-08-19T10:19:15.079Z,4.87
2018-08-19T10:21:45.170Z,5.80
2018-08-19T10:24:25.933Z,5.67
2018-08-19T10:26:55.460Z,7.37
2018-08-19T10:29:24.888Z,5.57
2018-08-19T10:32:00.905Z,4.83
2018-08-19T10:34:34.906Z,4.27
2018-08-19T10:37:04.774Z,5.17
2018-08-19T10:39:34.115Z,5.27
2018-08-19T10:42:20.702Z,4.93
2018-08-19T10:44:52.090Z,4.93
2018-08-19T10:47:22.007Z,6.20
2018-08-19T10:50:03.099Z,4.60
2018-08-19T10:52:32.959Z,4.40
2018-08-19T10:55:02.601Z,4.87
2018-08-19T10:57:38.647Z,4.30
2018-08-19T11:00:13.705Z,8.50
2018-08-19T11:02:43.277Z,4.70
2018-08-19T11:05:12.881Z,4.73
2018-08-19T11:07:42.246Z,5.57
2018-08-19T11:10:23.385Z,5.30
2018-08-19T11:12:55.574Z,5.40
2018-08-19T11:15:52.068Z,5.20
2018-08-19T11:18:40.582Z,4.00
2018-08-19T11:21:40.456Z,5.43
2018-08-19T11:24:33.184Z,4.83
2018-08-19T11:27:04.272Z,4.53
2018-08-19T11:29:40.265Z,5.33
2018-08-19T11:32:10.097Z,4.93
2018-08-19T11:34:39.353Z,4.60
2018-08-19T11:37:08.402Z,4.90
2018-08-19T11:39:43.776Z,5.10
2018-08-19T11:42:12.960Z,4.93
2018-08-19T11:44:42.341Z,4.90
2018-08-19T11:47:11.886Z,4.23
2018-08-19T11:49:41.264Z,3.97
2018-08-19T11:52:10.672Z,4.83
2018-08-19T11:54:40.113Z,5.20
2018-08-19T11:57:11.289Z,4.80
2018-08-19T11:59:42.760Z,5.20
2018-08-19T12:02:14.477Z,4.63
2018-08-19T12:04:44.125Z,4.90
2018-08-19T12:07:13.232Z,4.07
2018-08-19T12:09:43.570Z,4.77
2018-08-19T12:12:12.829Z,5.07
2018-08-19T12:14:42.238Z,4.47
2018-08-19T12:17:12.617Z,4.93
2018-08-19T12:19:43.106Z,4.70
2018-08-19T12:22:12.299Z,3.60
2018-08-19T12:24:44.610Z,4.00
2018-08-19T12:27:19.345Z,3.93
2018-08-19T12:29:48.735Z,4.53
2018-08-19T12:32:24.867Z,3.87
2018-08-19T12:34:55.475Z,3.80
2018-08-19T12:37:26.189Z,4.17
2018-08-19T12:39:56.196Z,3.70
2018-08-19T12:42:26.040Z,3.80
2018-08-19T12:45:02.404Z,3.47
2018-08-19T12:47:31.835Z,3.23
2018-08-19T12:50:02.693Z,3.57
2018-08-19T12:52:34.473Z,3.27
2018-08-19T12:55:07.825Z,3.27
2018-08-19T12:57:38.388Z,3.60
2018-08-19T13:00:27.035Z,3.20
2018-08-19T13:02:56.631Z,2.90
2018-08-19T13:05:25.760Z,3.53
2018-08-19T13:07:55.116Z,3.30
2018-08-19T13:10:24.696Z,3.20
2018-08-19T13:12:54.881Z,3.30
2018-08-19T13:15:25.584Z,3.83
2018-08-19T13:17:54.710Z,3.40
2018-08-19T13:20:24.111Z,3.70
2018-08-19T13:23:00.459Z,2.93
2018-08-19T13:25:30.412Z,2.93
2018-08-19T13:27:59.928Z,3.60
2018-08-19T13:30:29.347Z,3.73
2018-08-19T13:32:58.816Z,3.43
2018-08-19T13:35:28.286Z,3.37
2018-08-19T13:37:57.421Z,3.30
2018-08-19T13:40:32.494Z,4.30
2018-08-19T13:43:01.939Z,3.67
2018-08-19T13:45:31.408Z,2.87
2018-08-19T13:48:00.791Z,2.63
2018-08-19T13:50:29.877Z,3.03
2018-08-19T13:52:59.446Z,3.03
2018-08-19T13:55:29.425Z,2.80
2018-08-19T13:58:20.177Z,3.07
2018-08-19T14:00:50.296Z,3.10
2018-08-19T14:03:20.400Z,3.23
2018-08-19T14:05:49.755Z,2.80
2018-08-19T14:08:19.121Z,3.47
2018-08-19T14:10:48.177Z,2.67
2018-08-19T14:13:18.392Z,2.33
2018-08-19T14:15:47.609Z,2.00
2018-08-19T14:18:17.031Z,1.90
2018-08-19T14:20:46.385Z,2.30
2018-08-19T14:23:16.089Z,2.50
2018-08-19T14:25:45.541Z,2.43
2018-08-19T14:28:34.416Z,2.10
2018-08-19T14:31:04.049Z,2.30
2018-08-19T14:33:33.681Z,2.17
2018-08-19T14:36:03.046Z,2.57
2018-08-19T14:38:32.249Z,2.40
2018-08-19T14:41:01.649Z,2.30
2018-08-19T14:43:30.825Z,2.30
2018-08-19T14:46:09.152Z,2.57
2018-08-19T14:48:38.223Z,2.73
2018-08-19T14:51:09.319Z,2.37
2018-08-19T14:53:38.858Z,2.23
2018-08-19T14:56:15.659Z,2.10
2018-08-19T14:58:45.565Z,2.57
2018-08-19T15:01:15.013Z,2.40
2018-08-19T15:03:52.880Z,2.40
2018-08-19T15:06:34.824Z,2.37
2018-08-19T15:09:04.379Z,2.13
2018-08-19T15:11:33.779Z,2.70
2018-08-19T15:14:10.670Z,3.17
2018-08-19T15:16:40.047Z,2.70
2018-08-19T15:19:09.847Z,2.27
2018-08-19T15:21:38.892Z,2.70
2018-08-19T15:24:07.987Z,2.57
2018-08-19T15:26:38.455Z,3.37
2018-08-19T15:29:09.579Z,3.03
2018-08-19T15:31:39.033Z,2.60
2018-08-19T15:34:08.115Z,2.47
2018-08-19T15:36:37.413Z,2.37
2018-08-19T15:39:09.012Z,2.20
2018-08-19T15:41:38.437Z,2.57
2018-08-19T15:44:07.831Z,2.30
2018-08-19T15:46:37.399Z,2.67
2018-08-19T15:49:09.821Z,2.77
2018-08-19T15:51:39.004Z,2.40
2018-08-19T15:54:10.444Z,4.13
2018-08-19T15:56:39.933Z,3.33
2018-08-19T15:59:10.720Z,2.17
2018-08-19T16:01:40.589Z,2.97
2018-08-19T16:04:16.260Z,2.53
2018-08-19T16:06:48.102Z,2.67
2018-08-19T16:09:19.492Z,2.53
2018-08-19T16:11:49.672Z,2.90
2018-08-19T16:14:23.503Z,2.20
2018-08-19T16:16:53.528Z,2.20
2018-08-19T16:19:22.944Z,2.17
2018-08-19T16:21:53.219Z,2.37
2018-08-19T16:24:22.594Z,2.30
2018-08-19T16:26:51.737Z,2.20
2018-08-19T16:29:21.039Z,2.47
2018-08-19T16:31:50.411Z,2.40
2018-08-19T16:34:19.303Z,2.30
2018-08-19T16:36:48.986Z,2.70
2018-08-19T16:39:18.996Z,2.30
2018-08-19T16:41:48.205Z,2.40
2018-08-19T16:44:17.383Z,2.73
2018-08-19T16:46:46.628Z,2.80
2018-08-19T16:49:15.722Z,2.87
2018-08-19T16:51:44.801Z,3.57
2018-08-19T16:54:13.954Z,3.27
2018-08-19T16:56:43.382Z,2.90
2018-08-19T16:59:12.546Z,3.30
2018-08-19T17:01:41.835Z,2.80
2018-08-19T17:04:17.960Z,2.90
2018-08-19T17:06:47.804Z,2.73
2018-08-19T17:09:16.908Z,2.73
2018-08-19T17:11:46.916Z,2.53
2018-08-19T17:14:16.568Z,2.83
2018-08-19T17:16:46.240Z,2.30
2018-08-19T17:19:15.401Z,2.27
2018-08-19T17:21:44.734Z,1.93
2018-08-19T17:24:13.822Z,2.40
2018-08-19T17:26:43.297Z,2.43
2018-08-19T17:29:18.307Z,2.50
2018-08-19T17:31:47.530Z,2.30
2018-08-19T17:34:19.651Z,2.27
2018-08-19T17:36:49.042Z,2.40
2018-08-19T17:39:20.216Z,2.40
2018-08-19T17:41:50.785Z,2.50
2018-08-19T17:44:20.525Z,2.50
2018-08-19T17:46:53.524Z,2.57
2018-08-19T17:49:29.725Z,2.10
2018-08-19T17:52:00.302Z,2.30
2018-08-19T17:54:30.674Z,2.73
2018-08-19T17:57:01.996Z,2.50
2018-08-19T17:59:31.399Z,3.43
2018-08-19T18:02:00.562Z,2.80
2018-08-19T18:04:35.925Z,3.37
2018-08-19T18:07:05.302Z,2.90
2018-08-19T18:09:34.697Z,3.43
2018-08-19T18:12:05.124Z,2.83
2018-08-19T18:14:36.225Z,3.03
2018-08-19T18:17:05.473Z,2.67
2018-08-19T18:19:35.514Z,2.53
2018-08-19T18:22:04.713Z,2.70
2018-08-19T18:24:33.911Z,2.47
2018-08-19T18:27:03.335Z,2.73
2018-08-19T18:29:40.643Z,2.67
2018-08-19T18:32:11.152Z,2.97
2018-08-19T18:34:41.337Z,2.90
2018-08-19T18:37:11.470Z,3.03
2018-08-19T18:39:43.492Z,3.10
2018-08-19T18:42:19.647Z,2.80
2018-08-19T18:44:49.381Z,2.60
2018-08-19T18:47:21.571Z,2.60
2018-08-19T18:49:50.986Z,2.70
2018-08-19T18:52:30.444Z,2.43
2018-08-19T18:54:59.630Z,2.80
2018-08-19T18:57:30.825Z,2.60
2018-08-19T19:00:00.284Z,2.57
2018-08-19T19:02:29.369Z,2.70
2018-08-19T19:04:58.752Z,2.93
2018-08-19T19:07:28.142Z,2.97
2018-08-19T19:12:40.716Z,2.93
2018-08-19T19:15:11.595Z,2.60
2018-08-19T19:18:11.682Z,2.60
2018-08-19T19:20:47.818Z,2.80
2018-08-19T19:23:17.146Z,2.97
2018-08-19T19:25:46.224Z,2.57
2018-08-19T19:28:15.356Z,2.77
2018-08-19T19:30:44.467Z,2.73
2018-08-19T19:33:18.378Z,2.40
2018-08-19T19:35:47.876Z,2.17
2018-08-19T19:38:17.338Z,3.10
2018-08-19T19:40:46.698Z,2.87
2018-08-19T19:43:16.046Z,2.90
2018-08-19T19:45:51.600Z,2.80
2018-08-19T19:48:20.724Z,2.70
2018-08-19T19:50:50.155Z,2.70
2018-08-19T19:53:19.473Z,2.90
2018-08-19T19:55:48.712Z,3.20
2018-08-19T19:58:17.927Z,2.97
2018-08-19T20:00:55.630Z,3.10
2018-08-19T20:03:25.294Z,2.60
2018-08-19T20:05:54.656Z,3.10
2018-08-19T20:08:27.508Z,2.77
2018-08-19T20:10:56.606Z,2.90
2018-08-19T20:13:25.797Z,2.87
2018-08-19T20:15:54.869Z,2.93
2018-08-19T20:18:23.984Z,2.63
2018-08-19T20:20:53.262Z,2.93
2018-08-19T20:23:25.026Z,2.90
2018-08-19T20:25:55.346Z,2.97
2018-08-19T20:28:25.035Z,3.23
2018-08-19T20:30:54.111Z,3.00
2018-08-19T20:33:29.654Z,2.90
2018-08-19T20:35:58.797Z,3.13
2018-08-19T20:38:27.912Z,3.40
2018-08-19T20:40:58.302Z,3.30
2018-08-19T20:43:27.421Z,3.17
2018-08-19T20:45:56.780Z,3.57
2018-08-19T20:48:26.669Z,3.00
2018-08-19T20:50:56.043Z,3.33
2018-08-19T20:53:25.319Z,3.33
2018-08-19T20:55:54.638Z,2.87
2018-08-19T20:58:24.128Z,3.40
2018-08-19T21:00:53.597Z,3.03
2018-08-19T21:03:22.950Z,3.10
2018-08-19T21:05:52.440Z,3.10
2018-08-19T21:08:21.782Z,3.40
2018-08-19T21:10:50.999Z,3.30
2018-08-19T21:13:21.571Z,3.40
2018-08-19T21:15:53.322Z,3.37
2018-08-19T21:18:22.408Z,4.13
2018-08-19T21:20:52.543Z,3.70
2018-08-19T21:23:21.927Z,3.70
2018-08-19T21:25:56.717Z,4.00
2018-08-19T21:28:26.082Z,3.73
2018-08-19T21:30:55.368Z,3.43
2018-08-19T21:33:24.743Z,3.53
2018-08-19T21:35:55.250Z,4.10
2018-08-19T21:38:24.648Z,3.93
2018-08-19T21:40:55.935Z,3.93
2018-08-19T21:43:27.994Z,3.30
2018-08-19T21:45:57.422Z,3.90
2018-08-19T21:48:26.567Z,3.80
2018-08-19T21:50:55.851Z,3.60
2018-08-19T21:53:25.292Z,3.67
2018-08-19T21:55:54.653Z,3.83
2018-08-19T21:58:24.261Z,4.00
2018-08-19T22:01:02.557Z,3.67
2018-08-19T22:04:02.742Z,4.00
2018-08-19T22:06:31.731Z,3.43
2018-08-19T22:09:00.917Z,3.83
2018-08-19T22:11:30.190Z,3.77
2018-08-19T22:14:00.036Z,3.50
2018-08-19T22:16:28.933Z,3.77
2018-08-19T22:18:57.921Z,3.93
2018-08-19T22:21:27.221Z,3.47
2018-08-19T22:23:56.658Z,3.90
2018-08-19T22:26:25.812Z,3.93
2018-08-19T22:29:12.304Z,3.70
2018-08-19T22:31:41.371Z,3.50
2018-08-19T22:34:10.629Z,3.77
2018-08-19T22:36:39.956Z,3.63
2018-08-19T22:39:10.529Z,3.20
2018-08-19T22:41:39.623Z,3.70
2018-08-19T22:44:09.109Z,3.70
2018-08-19T22:46:38.462Z,3.93
2018-08-19T22:49:07.904Z,3.40
2018-08-19T22:51:37.254Z,3.77
2018-08-19T22:54:06.426Z,3.83
2018-08-19T22:56:35.735Z,3.70
2018-08-19T22:59:04.869Z,3.80
2018-08-19T23:01:39.572Z,4.03
2018-08-19T23:04:09.797Z,3.97
2018-08-19T23:06:39.504Z,3.70
2018-08-19T23:09:08.993Z,3.90
2018-08-19T23:11:44.063Z,3.40
2018-08-19T23:14:24.432Z,3.97
2018-08-19T23:16:53.931Z,4.10
2018-08-19T23:19:22.901Z,4.07
2018-08-19T23:21:52.343Z,3.90
2018-08-19T23:24:21.693Z,3.90
2018-08-19T23:26:51.111Z,3.87
2018-08-19T23:29:20.452Z,3.73
2018-08-19T23:31:49.616Z,3.90
2018-08-19T23:34:18.739Z,3.53
2018-08-19T23:36:48.126Z,4.10
2018-08-19T23:39:17.530Z,3.70
2018-08-19T23:41:46.947Z,3.93
2018-08-19T23:44:16.552Z,3.37
2018-08-19T23:46:45.929Z,3.70
2018-08-19T23:49:15.215Z,3.57
2018-08-19T23:51:44.592Z,3.73
2018-08-19T23:54:14.146Z,3.50
2018-08-19T23:56:43.473Z,3.30
2018-08-19T23:59:12.571Z,3.00
